createdAt,value
2023-05-04T00:01:51.784Z,3.7
2023-05-04T00:31:58.997Z,3.9
2023-05-04T01:01:53.572Z,4.1
2023-05-04T01:31:57.878Z,3.3
2023-05-04T02:01:55.981Z,3
2023-05-04T02:31:56.331Z,3.1
2023-05-04T03:01:57.048Z,3.3
2023-05-04T03:31:58.227Z,3.2
2023-05-04T04:02:01.722Z,4.1
2023-05-04T04:32:00.237Z,4.8
2023-05-04T05:02:00.864Z,5.3
2023-05-04T05:32:01.134Z,5.6
2023-05-04T06:02:11.893Z,5.5
2023-05-04T06:32:02.892Z,5.3
2023-05-04T07:02:03.923Z,5.2
2023-05-04T07:32:05.354Z,5.2
2023-05-04T08:02:07.201Z,5.4
2023-05-04T08:32:09.654Z,5.1
2023-05-04T09:02:11.561Z,5.2
2023-05-04T09:32:15.191Z,5.2
2023-05-04T10:02:23.045Z,5.5
2023-05-04T10:32:26.397Z,5
2023-05-04T11:02:33.061Z,5.2
2023-05-04T11:32:27.182Z,4.5
2023-05-04T12:02:30.842Z,5.1
2023-05-04T12:32:34.477Z,4.6
2023-05-04T13:02:38.537Z,4.1
2023-05-04T13:32:43.965Z,4.2
2023-05-04T14:02:54.252Z,4.4
2023-05-04T14:32:51.446Z,4
2023-05-04T15:02:56.027Z,4.7
2023-05-04T15:33:00.346Z,5
2023-05-04T16:03:04.688Z,4.6
2023-05-04T16:33:08.700Z,5.5
2023-05-04T17:03:13.200Z,5.2
2023-05-04T17:33:16.407Z,5
2023-05-04T18:03:21.177Z,4.9
2023-05-04T18:33:22.992Z,4.8
2023-05-04T19:03:27.703Z,5.5
2023-05-04T19:33:40.487Z,5.6
2023-05-04T20:03:35.190Z,5.5
2023-05-04T20:33:36.093Z,5.5
2023-05-04T21:03:39.000Z,5.6
2023-05-04T21:33:40.329Z,5.3
2023-05-04T22:04:03.436Z,5.2
2023-05-04T22:33:45.039Z,4.8
2023-05-04T23:03:48.860Z,4.6
2023-05-04T23:33:49.633Z,4.2
